createdAt,value
2023-04-16T00:00:05.575Z,98514.97
2023-04-16T00:01:07.491Z,98514.19
2023-04-16T00:02:09.719Z,98509.59
2023-04-16T00:03:12.157Z,98517.66
2023-04-16T00:04:14.329Z,98513.09
2023-04-16T00:05:16.611Z,98509.59
2023-04-16T00:06:18.739Z,98512.56
2023-04-16T00:07:21.005Z,98518.47
2023-04-16T00:08:26.910Z,98512.56
2023-04-16T00:09:28.785Z,98515.50
2023-04-16T00:10:31.037Z,98516.31
2023-04-16T00:11:32.910Z,98512.00
2023-04-16T00:12:35.045Z,98508.25
2023-04-16T00:13:37.758Z,98512.81
2023-04-16T00:14:39.876Z,98514.72
2023-04-16T00:15:41.838Z,98507.44
2023-04-16T00:16:43.720Z,98512.81
2023-04-16T00:17:46.014Z,98513.63
2023-04-16T00:18:48.259Z,98516.59
2023-04-16T00:19:50.502Z,98520.38
2023-04-16T00:20:53.745Z,98520.09
2023-04-16T00:21:55.985Z,98508.53
2023-04-16T00:22:58.245Z,98514.19
2023-04-16T00:24:00.288Z,98514.19
2023-04-16T00:25:02.283Z,98510.94
2023-04-16T00:26:04.613Z,98513.91
2023-04-16T00:27:06.927Z,98519.28
2023-04-16T00:28:10.679Z,98519.28
2023-04-16T00:29:13.204Z,98515.50
2023-04-16T00:30:15.402Z,98515.50
2023-04-16T00:31:17.630Z,98519.56
2023-04-16T00:32:19.872Z,98516.88
2023-04-16T00:33:22.570Z,98510.41
2023-04-16T00:34:24.492Z,98517.97
2023-04-16T00:35:26.754Z,98515.00
2023-04-16T00:36:29.388Z,98512.88
2023-04-16T00:37:31.328Z,98515.78
2023-04-16T00:38:33.352Z,98518.47
2023-04-16T00:39:35.348Z,98511.50
2023-04-16T00:40:37.834Z,98521.47
2023-04-16T00:41:39.782Z,98525.47
2023-04-16T00:42:42.016Z,98519.56
2023-04-16T00:43:44.240Z,98514.19
2023-04-16T00:44:46.213Z,98513.38
2023-04-16T00:45:48.328Z,98517.97
2023-04-16T00:46:51.387Z,98518.25
2023-04-16T00:47:53.333Z,98519.03
2023-04-16T00:48:56.518Z,98515.56
2023-04-16T00:49:58.544Z,98516.34
2023-04-16T00:51:01.740Z,98518.75
2023-04-16T00:52:04.020Z,98520.13
2023-04-16T00:53:06.215Z,98513.94
2023-04-16T00:54:08.056Z,98524.44
2023-04-16T00:55:13.826Z,98522.31
2023-04-16T00:56:17.657Z,98518.25
2023-04-16T00:57:21.430Z,98516.66
2023-04-16T00:58:24.024Z,98522.59
2023-04-16T00:59:27.666Z,98527.69
2023-04-16T01:00:29.954Z,98518.00
2023-04-16T01:01:31.870Z,98521.25
2023-04-16T01:02:34.700Z,98525.28
2023-04-16T01:03:43.763Z,98515.84
2023-04-16T01:04:46.398Z,98519.91
2023-04-16T01:05:49.441Z,98523.94
2023-04-16T01:06:51.294Z,98518.84
2023-04-16T01:07:53.666Z,98516.69
2023-04-16T01:08:55.896Z,98518.56
2023-04-16T01:09:58.368Z,98517.50
2023-04-16T01:11:00.397Z,98521.25
2023-04-16T01:12:02.315Z,98523.94
2023-04-16T01:13:04.454Z,98525.03
2023-04-16T01:14:06.485Z,98530.41
2023-04-16T01:15:09.190Z,98526.66
2023-04-16T01:16:12.971Z,98532.03
2023-04-16T01:17:15.050Z,98532.03
2023-04-16T01:18:19.683Z,98527.72
2023-04-16T01:19:21.585Z,98525.03
2023-04-16T01:20:23.552Z,98526.94
2023-04-16T01:21:26.740Z,98528.81
2023-04-16T01:22:29.338Z,98527.72
2023-04-16T01:23:32.084Z,98531.50
2023-04-16T01:24:35.056Z,98521.53
2023-04-16T01:25:36.986Z,98522.63
2023-04-16T01:26:39.074Z,98528.81
2023-04-16T01:27:41.215Z,98530.41
2023-04-16T01:28:43.774Z,98532.31
2023-04-16T01:29:47.258Z,98522.34
2023-04-16T01:30:49.231Z,98525.31
2023-04-16T01:31:51.246Z,98530.69
2023-04-16T01:32:53.310Z,98518.06
2023-04-16T01:33:55.255Z,98529.34
2023-04-16T01:34:57.116Z,98531.50
2023-04-16T01:35:58.960Z,98530.97
2023-04-16T01:37:00.883Z,98530.69
2023-04-16T01:38:04.137Z,98527.19
2023-04-16T01:39:06.313Z,98534.19
2023-04-16T01:40:08.879Z,98529.91
2023-04-16T01:41:10.698Z,98530.16
2023-04-16T01:42:12.670Z,98530.97
2023-04-16T01:43:14.600Z,98535.53
2023-04-16T01:44:16.591Z,98540.09
2023-04-16T01:45:18.758Z,98531.22
2023-04-16T01:46:33.561Z,98537.94
2023-04-16T01:47:36.011Z,98534.47
2023-04-16T01:48:38.351Z,98535.00
2023-04-16T01:49:40.962Z,98538.50
2023-04-16T01:50:42.903Z,98536.88
2023-04-16T01:51:45.046Z,98539.56
2023-04-16T01:52:47.509Z,98541.47
2023-04-16T01:53:50.608Z,98536.09
2023-04-16T01:54:52.623Z,98534.19
2023-04-16T01:55:54.592Z,98541.47
2023-04-16T01:56:57.097Z,98540.38
2023-04-16T01:57:58.899Z,98543.34
2023-04-16T01:59:00.787Z,98543.06
2023-04-16T02:00:04.027Z,98542.03
2023-04-16T02:01:06.134Z,98540.94
2023-04-16T02:02:11.633Z,98535.28
2023-04-16T02:03:13.794Z,98539.84
2023-04-16T02:04:15.928Z,98540.94
2023-04-16T02:05:18.367Z,98540.94
2023-04-16T02:06:20.774Z,98539.34
2023-04-16T02:07:22.630Z,98543.91
2023-04-16T02:08:24.836Z,98540.41
2023-04-16T02:09:26.672Z,98539.63
2023-04-16T02:10:28.503Z,98542.31
2023-04-16T02:11:30.317Z,98545.78
2023-04-16T02:12:32.196Z,98541.22
2023-04-16T02:13:34.143Z,98541.78
2023-04-16T02:14:35.997Z,98537.44
2023-04-16T02:15:37.977Z,98540.13
2023-04-16T02:16:40.056Z,98540.41
2023-04-16T02:17:41.986Z,98541.78
2023-04-16T02:18:44.285Z,98549.56
2023-04-16T02:19:46.348Z,98540.69
2023-04-16T02:20:50.011Z,98542.59
2023-04-16T02:21:53.529Z,98545.28
2023-04-16T02:22:55.866Z,98540.97
2023-04-16T02:23:57.793Z,98540.97
2023-04-16T02:24:59.692Z,98544.72
2023-04-16T02:26:03.987Z,98542.84
2023-04-16T02:27:06.460Z,98545.53
2023-04-16T02:28:11.989Z,98546.34
2023-04-16T02:29:14.263Z,98540.41
2023-04-16T02:30:16.856Z,98543.91
2023-04-16T02:31:19.915Z,98544.47
2023-04-16T02:32:22.682Z,98548.22
2023-04-16T02:33:26.682Z,98545.00
2023-04-16T02:34:28.640Z,98546.88
2023-04-16T02:35:30.644Z,98537.47
2023-04-16T02:36:33.160Z,98542.88
2023-04-16T02:37:35.428Z,98540.69
2023-04-16T02:38:37.853Z,98542.88
2023-04-16T02:39:39.650Z,98545.28
2023-04-16T02:40:41.819Z,98555.22
2023-04-16T02:41:43.660Z,98544.47
2023-04-16T02:42:45.496Z,98545.56
2023-04-16T02:43:47.724Z,98551.72
2023-04-16T02:44:49.890Z,98550.94
2023-04-16T02:45:51.925Z,98543.66
2023-04-16T02:46:53.800Z,98547.44
2023-04-16T02:47:55.648Z,98548.25
2023-04-16T02:48:57.625Z,98540.44
2023-04-16T02:49:59.483Z,98550.41
2023-04-16T02:51:01.476Z,98555.78
2023-04-16T02:52:03.407Z,98546.09
2023-04-16T02:53:06.599Z,98554.19
2023-04-16T02:54:08.742Z,98553.09
2023-04-16T02:55:11.738Z,98551.50
2023-04-16T02:56:13.659Z,98553.91
2023-04-16T02:57:15.676Z,98550.97
2023-04-16T02:58:17.785Z,98554.44
2023-04-16T02:59:19.672Z,98547.19
2023-04-16T03:00:21.829Z,98552.81
2023-04-16T03:01:23.727Z,98547.19
2023-04-16T03:02:26.020Z,98548.28
2023-04-16T03:03:28.138Z,98558.19
2023-04-16T03:04:30.105Z,98555.50
2023-04-16T03:05:32.275Z,98557.66
2023-04-16T03:06:34.191Z,98559.28
2023-04-16T03:07:36.143Z,98554.19
2023-04-16T03:08:38.044Z,98553.91
2023-04-16T03:09:40.565Z,98554.19
2023-04-16T03:10:42.451Z,98560.63
2023-04-16T03:11:44.370Z,98554.19
2023-04-16T03:12:46.295Z,98557.16
2023-04-16T03:13:48.659Z,98567.63
2023-04-16T03:14:53.752Z,98562.25
2023-04-16T03:15:55.997Z,98564.94
2023-04-16T03:16:58.828Z,98572.19
2023-04-16T03:18:01.442Z,98574.88
2023-04-16T03:19:03.357Z,98564.69
2023-04-16T03:20:06.565Z,98567.09
2023-04-16T03:21:08.464Z,98559.59
2023-04-16T03:22:10.533Z,98570.88
2023-04-16T03:23:12.471Z,98563.59
2023-04-16T03:24:14.542Z,98572.47
2023-04-16T03:25:16.484Z,98571.13
2023-04-16T03:26:18.338Z,98571.94
2023-04-16T03:27:20.372Z,98568.16
2023-04-16T03:28:22.291Z,98569.25
2023-04-16T03:29:24.661Z,98573.81
2023-04-16T03:30:26.922Z,98571.13
2023-04-16T03:31:28.768Z,98574.09
2023-04-16T03:32:31.141Z,98571.69
2023-04-16T03:33:33.037Z,98571.69
2023-04-16T03:34:36.858Z,98576.78
2023-04-16T03:35:38.660Z,98576.78
2023-04-16T03:36:40.984Z,98578.69
2023-04-16T03:37:42.921Z,98578.69
2023-04-16T03:38:44.791Z,98574.38
2023-04-16T03:39:46.890Z,98574.09
2023-04-16T03:40:48.965Z,98581.66
2023-04-16T03:41:50.790Z,98584.34
2023-04-16T03:42:52.627Z,98579.16
2023-04-16T03:43:54.669Z,98588.06
2023-04-16T03:44:57.322Z,98582.13
2023-04-16T03:45:59.164Z,98582.69
2023-04-16T03:47:01.206Z,98583.75
2023-04-16T03:48:03.193Z,98575.44
2023-04-16T03:49:05.243Z,98586.44
2023-04-16T03:50:07.630Z,98584.53
2023-04-16T03:51:09.486Z,98582.13
2023-04-16T03:52:11.630Z,98581.06
2023-04-16T03:53:14.031Z,98585.09
2023-04-16T03:54:16.024Z,98587.78
2023-04-16T03:55:17.910Z,98584.28
2023-04-16T03:56:20.081Z,98584.03
2023-04-16T03:57:22.135Z,98589.41
2023-04-16T03:58:24.004Z,98586.19
2023-04-16T03:59:26.052Z,98590.75
2023-04-16T04:00:28.184Z,98583.75
2023-04-16T04:01:30.515Z,98589.94
2023-04-16T04:02:32.567Z,98588.06
2023-04-16T04:03:34.979Z,98591.84
2023-04-16T04:04:37.070Z,98590.22
2023-04-16T04:05:43.041Z,98591.28
2023-04-16T04:06:46.946Z,98589.94
2023-04-16T04:07:48.789Z,98594.78
2023-04-16T04:08:50.679Z,98588.63
2023-04-16T04:09:52.791Z,98595.06
2023-04-16T04:10:54.716Z,98591.31
2023-04-16T04:11:56.525Z,98589.41
2023-04-16T04:12:58.402Z,98591.59
2023-04-16T04:14:00.405Z,98595.31
2023-04-16T04:15:02.371Z,98587.00
2023-04-16T04:16:06.046Z,98594.00
2023-04-16T04:17:09.254Z,98595.06
2023-04-16T04:18:11.163Z,98596.97
2023-04-16T04:19:13.005Z,98598.81
2023-04-16T04:20:14.909Z,98599.66
2023-04-16T04:21:16.865Z,98596.13
2023-04-16T04:22:19.034Z,98607.72
2023-04-16T04:23:20.906Z,98600.69
2023-04-16T04:24:22.738Z,98602.56
2023-04-16T04:25:25.028Z,98601.50
2023-04-16T04:26:26.922Z,98598.81
2023-04-16T04:27:29.178Z,98600.69
2023-04-16T04:28:34.408Z,98600.69
2023-04-16T04:29:36.309Z,98601.78
2023-04-16T04:30:38.470Z,98606.63
2023-04-16T04:31:40.992Z,98602.84
2023-04-16T04:32:43.346Z,98599.38
2023-04-16T04:33:45.439Z,98603.94
2023-04-16T04:34:47.327Z,98603.13
2023-04-16T04:35:49.532Z,98606.91
2023-04-16T04:36:51.421Z,98609.59
2023-04-16T04:37:53.631Z,98609.59
2023-04-16T04:38:55.493Z,98616.84
2023-04-16T04:39:57.734Z,98610.66
2023-04-16T04:40:59.849Z,98612.81
2023-04-16T04:42:03.164Z,98611.75
2023-04-16T04:43:05.125Z,98617.66
2023-04-16T04:44:07.012Z,98617.13
2023-04-16T04:45:10.060Z,98620.34
2023-04-16T04:46:12.254Z,98623.03
2023-04-16T04:47:15.705Z,98620.88
2023-04-16T04:48:17.869Z,98625.19
2023-04-16T04:49:20.017Z,98617.13
2023-04-16T04:50:22.434Z,98627.88
2023-04-16T04:51:24.437Z,98621.69
2023-04-16T04:52:26.302Z,98619.81
2023-04-16T04:53:28.126Z,98619.81
2023-04-16T04:54:32.067Z,98625.72
2023-04-16T04:55:33.899Z,98627.31
2023-04-16T04:56:35.816Z,98629.19
2023-04-16T04:57:37.640Z,98624.63
2023-04-16T04:58:39.589Z,98624.09
2023-04-16T04:59:41.416Z,98634.31
2023-04-16T05:00:43.287Z,98630.81
2023-04-16T05:01:45.407Z,98636.19
2023-04-16T05:02:47.851Z,98635.38
2023-04-16T05:03:49.980Z,98635.38
2023-04-16T05:04:52.100Z,98632.69
2023-04-16T05:05:54.426Z,98640.75
2023-04-16T05:06:56.228Z,98639.69
2023-04-16T05:07:58.142Z,98637.00
2023-04-16T05:09:00.049Z,98637.53
2023-04-16T05:10:02.026Z,98638.59
2023-04-16T05:11:03.987Z,98645.84
2023-04-16T05:12:06.288Z,98636.72
2023-04-16T05:13:08.179Z,98641.00
2023-04-16T05:14:10.082Z,98640.47
2023-04-16T05:15:12.018Z,98645.84
2023-04-16T05:16:13.999Z,98652.84
2023-04-16T05:17:15.874Z,98649.34
2023-04-16T05:18:17.717Z,98650.16
2023-04-16T05:19:19.589Z,98656.34
2023-04-16T05:20:23.388Z,98656.09
2023-04-16T05:21:26.724Z,98654.22
2023-04-16T05:22:28.836Z,98651.75
2023-04-16T05:23:30.787Z,98648.84
2023-04-16T05:24:32.755Z,98654.44
2023-04-16T05:25:34.897Z,98649.88
2023-04-16T05:26:36.813Z,98656.09
2023-04-16T05:27:38.946Z,98656.91
2023-04-16T05:28:41.161Z,98655.53
2023-04-16T05:29:43.285Z,98652.84
2023-04-16T05:30:45.238Z,98653.13
2023-04-16T05:31:47.058Z,98658.22
2023-04-16T05:32:49.015Z,98663.59
2023-04-16T05:33:50.865Z,98660.13
2023-04-16T05:34:52.989Z,98659.59
2023-04-16T05:35:54.872Z,98665.22
2023-04-16T05:36:56.786Z,98656.63
2023-04-16T05:37:58.723Z,98661.72
2023-04-16T05:39:00.697Z,98659.03
2023-04-16T05:40:02.736Z,98665.22
2023-04-16T05:41:06.461Z,98664.41
2023-04-16T05:42:08.694Z,98665.50
2023-04-16T05:43:11.048Z,98664.41
2023-04-16T05:44:13.276Z,98670.06
2023-04-16T05:45:15.362Z,98667.91
2023-04-16T05:46:17.534Z,98664.41
2023-04-16T05:47:19.813Z,98671.41
2023-04-16T05:48:21.725Z,98677.06
2023-04-16T05:49:23.669Z,98675.97
2023-04-16T05:50:25.656Z,98674.38
2023-04-16T05:51:28.044Z,98673.28
2023-04-16T05:52:30.355Z,98673.28
2023-04-16T05:53:32.204Z,98676.78
2023-04-16T05:54:34.181Z,98675.69
2023-04-16T05:55:39.292Z,98676.50
2023-04-16T05:56:41.273Z,98681.06
2023-04-16T05:57:43.114Z,98686.97
2023-04-16T05:58:45.276Z,98684.03
2023-04-16T05:59:47.427Z,98686.19
2023-04-16T06:00:49.600Z,98688.88
2023-04-16T06:01:51.512Z,98687.78
2023-04-16T06:02:53.716Z,98693.16
2023-04-16T06:03:55.945Z,98686.97
2023-04-16T06:04:57.903Z,98689.19
2023-04-16T06:06:00.319Z,98692.41
2023-04-16T06:07:02.554Z,98691.88
2023-04-16T06:08:04.736Z,98683.81
2023-04-16T06:09:06.998Z,98695.38
2023-04-16T06:10:09.495Z,98688.91
2023-04-16T06:11:11.611Z,98694.28
2023-04-16T06:12:13.794Z,98697.78
2023-04-16T06:13:15.775Z,98695.63
2023-04-16T06:14:17.988Z,98690.53
2023-04-16T06:15:20.316Z,98691.59
2023-04-16T06:16:22.436Z,98687.56
2023-04-16T06:17:24.422Z,98690.25
2023-04-16T06:18:26.472Z,98697.50
2023-04-16T06:19:28.658Z,98694.81
2023-04-16T06:20:31.253Z,98687.84
2023-04-16T06:21:33.549Z,98697.50
2023-04-16T06:22:35.568Z,98697.22
2023-04-16T06:23:37.429Z,98698.03
2023-04-16T06:24:39.478Z,98698.03
2023-04-16T06:25:41.542Z,98694.53
2023-04-16T06:26:43.736Z,98699.66
2023-04-16T06:27:45.824Z,98702.06
2023-04-16T06:28:48.108Z,98702.88
2023-04-16T06:29:50.853Z,98695.06
2023-04-16T06:30:52.981Z,98704.75
2023-04-16T06:31:55.648Z,98700.44
2023-04-16T06:32:57.675Z,98698.56
2023-04-16T06:33:59.674Z,98704.22
2023-04-16T06:35:02.077Z,98702.88
2023-04-16T06:36:04.382Z,98705.03
2023-04-16T06:37:10.360Z,98708.25
2023-04-16T06:38:12.615Z,98702.06
2023-04-16T06:39:14.519Z,98702.06
2023-04-16T06:40:16.562Z,98703.94
2023-04-16T06:41:18.570Z,98696.16
2023-04-16T06:42:20.900Z,98702.88
2023-04-16T06:43:23.185Z,98700.44
2023-04-16T06:44:25.515Z,98703.41
2023-04-16T06:45:27.387Z,98709.06
2023-04-16T06:46:29.300Z,98715.53
2023-04-16T06:47:31.318Z,98716.88
2023-04-16T06:48:33.507Z,98707.47
2023-04-16T06:49:35.576Z,98723.31
2023-04-16T06:50:37.764Z,98719.28
2023-04-16T06:51:39.722Z,98723.88
2023-04-16T06:52:41.692Z,98715.53
2023-04-16T06:53:44.112Z,98721.16
2023-04-16T06:54:46.047Z,98725.47
2023-04-16T06:55:47.858Z,98720.91
2023-04-16T06:56:50.194Z,98715.00
2023-04-16T06:57:52.288Z,98723.59
2023-04-16T06:58:54.751Z,98722.78
2023-04-16T06:59:56.927Z,98725.19
2023-04-16T07:00:59.777Z,98722.78
2023-04-16T07:02:02.005Z,98723.31
2023-04-16T07:03:04.159Z,98727.88
2023-04-16T07:04:06.557Z,98723.31
2023-04-16T07:05:09.116Z,98727.34
2023-04-16T07:06:11.773Z,98724.94
2023-04-16T07:07:14.167Z,98725.72
2023-04-16T07:08:16.444Z,98728.16
2023-04-16T07:09:18.792Z,98728.41
2023-04-16T07:10:21.272Z,98730.84
2023-04-16T07:11:23.842Z,98724.66
2023-04-16T07:12:27.190Z,98725.72
2023-04-16T07:13:29.808Z,98726.25
2023-04-16T07:14:32.178Z,98723.84
2023-04-16T07:15:34.813Z,98731.09
2023-04-16T07:16:38.202Z,98729.22
2023-04-16T07:17:40.691Z,98728.16
2023-04-16T07:18:43.362Z,98730.84
2023-04-16T07:19:46.254Z,98725.19
2023-04-16T07:20:49.103Z,98731.63
2023-04-16T07:21:52.245Z,98732.97
2023-04-16T07:22:54.947Z,98728.69
2023-04-16T07:23:57.212Z,98730.56
2023-04-16T07:24:59.668Z,98726.78
2023-04-16T07:26:01.972Z,98729.47
2023-04-16T07:27:04.313Z,98741.31
2023-04-16T07:28:06.757Z,98740.25
2023-04-16T07:29:09.486Z,98735.94
2023-04-16T07:30:12.246Z,98737.53
2023-04-16T07:31:14.603Z,98739.19
2023-04-16T07:32:17.505Z,98733.25
2023-04-16T07:33:19.810Z,98738.91
2023-04-16T07:34:22.474Z,98740.81
2023-04-16T07:35:24.790Z,98740.53
2023-04-16T07:36:28.451Z,98742.41
2023-04-16T07:37:31.007Z,98738.91
2023-04-16T07:38:34.760Z,98747.78
2023-04-16T07:39:37.116Z,98748.31
2023-04-16T07:40:39.419Z,98745.09
2023-04-16T07:41:42.047Z,98747.78
2023-04-16T07:42:44.686Z,98748.59
2023-04-16T07:43:47.093Z,98747.78
2023-04-16T07:44:49.399Z,98740.53
2023-04-16T07:45:52.140Z,98749.41
2023-04-16T07:46:54.799Z,98753.69
2023-04-16T07:47:57.957Z,98751.81
2023-04-16T07:49:00.518Z,98748.31
2023-04-16T07:50:03.043Z,98751.00
2023-04-16T07:51:05.524Z,98752.09
2023-04-16T07:52:08.232Z,98751.81
2023-04-16T07:53:11.001Z,98755.59
2023-04-16T07:54:13.348Z,98752.09
2023-04-16T07:55:15.932Z,98760.69
2023-04-16T07:56:18.534Z,98756.38
2023-04-16T07:57:21.606Z,98758.28
2023-04-16T07:58:24.257Z,98759.06
2023-04-16T07:59:26.794Z,98761.50
2023-04-16T08:00:30.324Z,98768.47
2023-04-16T08:01:32.858Z,98764.47
2023-04-16T08:02:35.550Z,98765.25
2023-04-16T08:03:38.260Z,98760.69
2023-04-16T08:04:42.432Z,98768.47
2023-04-16T08:05:45.042Z,98772.25
2023-04-16T08:06:47.695Z,98763.91
2023-04-16T08:07:50.221Z,98767.69
2023-04-16T08:08:52.869Z,98776.56
2023-04-16T08:09:55.679Z,98768.22
2023-04-16T08:10:58.172Z,98769.56
2023-04-16T08:12:01.496Z,98775.75
2023-04-16T08:13:06.844Z,98768.47
2023-04-16T08:14:09.372Z,98772.78
2023-04-16T08:15:11.967Z,98778.97
2023-04-16T08:16:14.537Z,98780.03
2023-04-16T08:17:16.963Z,98777.34
2023-04-16T08:18:20.030Z,98768.75
2023-04-16T08:19:22.418Z,98771.16
2023-04-16T08:20:25.032Z,98776.56
2023-04-16T08:21:28.207Z,98772.25
2023-04-16T08:22:30.858Z,98780.03
2023-04-16T08:23:33.811Z,98777.34
2023-04-16T08:24:36.418Z,98780.03
2023-04-16T08:25:39.062Z,98781.66
2023-04-16T08:26:41.737Z,98784.63
2023-04-16T08:27:44.298Z,98781.66
2023-04-16T08:28:46.751Z,98784.34
2023-04-16T08:29:49.259Z,98785.97
2023-04-16T08:30:51.777Z,98787.03
2023-04-16T08:31:54.886Z,98788.91
2023-04-16T08:32:57.715Z,98786.22
2023-04-16T08:34:01.001Z,98795.41
2023-04-16T08:35:03.560Z,98788.91
2023-04-16T08:36:06.391Z,98787.56
2023-04-16T08:37:08.989Z,98794.03
2023-04-16T08:38:11.343Z,98795.63
2023-04-16T08:39:13.778Z,98796.72
2023-04-16T08:40:16.514Z,98790.25
2023-04-16T08:41:21.987Z,98801.00
2023-04-16T08:42:37.520Z,98796.47
2023-04-16T08:43:44.809Z,98799.16
2023-04-16T08:44:52.443Z,98797.00
2023-04-16T08:45:57.381Z,98794.59
2023-04-16T08:47:00.631Z,98800.78
2023-04-16T08:48:06.874Z,98797.00
2023-04-16T08:49:13.851Z,98796.47
2023-04-16T08:50:17.580Z,98800.50
2023-04-16T08:51:22.444Z,98803.47
2023-04-16T08:52:26.150Z,98803.47
2023-04-16T08:53:42.443Z,98809.09
2023-04-16T08:55:01.115Z,98807.75
2023-04-16T08:56:05.705Z,98813.41
2023-04-16T08:57:12.103Z,98805.59
2023-04-16T08:58:18.845Z,98808.56
2023-04-16T08:59:22.398Z,98808.56
2023-04-16T09:00:25.025Z,98806.16
2023-04-16T09:01:27.740Z,98811.53
2023-04-16T09:02:31.452Z,98805.34
2023-04-16T09:03:36.506Z,98806.97
2023-04-16T09:04:39.886Z,98806.41
2023-04-16T09:05:44.030Z,98803.47
2023-04-16T09:06:48.241Z,98809.66
2023-04-16T09:07:52.511Z,98813.13
2023-04-16T09:08:58.146Z,98812.59
2023-04-16T09:10:01.910Z,98815.03
2023-04-16T09:11:04.466Z,98814.75
2023-04-16T09:12:07.932Z,98813.13
2023-04-16T09:13:13.441Z,98813.94
2023-04-16T09:14:16.059Z,98818.78
2023-04-16T09:15:20.747Z,98812.34
2023-04-16T09:16:23.715Z,98825.78
2023-04-16T09:17:26.584Z,98818.78
2023-04-16T09:18:29.327Z,98817.72
2023-04-16T09:19:31.610Z,98822.28
2023-04-16T09:20:34.605Z,98822.28
2023-04-16T09:21:37.257Z,98822.03
2023-04-16T09:22:40.517Z,98832.78
2023-04-16T09:23:43.775Z,98826.31
2023-04-16T09:24:46.228Z,98828.47
2023-04-16T09:25:48.507Z,98825.50
2023-04-16T09:26:52.922Z,98823.91
2023-04-16T09:27:55.601Z,98829.28
2023-04-16T09:28:58.326Z,98827.13
2023-04-16T09:30:00.925Z,98831.16
2023-04-16T09:31:14.928Z,98827.09
2023-04-16T09:32:17.433Z,98831.69
2023-04-16T09:33:24.473Z,98826.03
2023-04-16T09:34:27.116Z,98832.22
2023-04-16T09:35:49.601Z,98834.41
2023-04-16T09:36:52.121Z,98835.72
2023-04-16T09:37:58.455Z,98830.34
2023-04-16T09:39:01.488Z,98834.38
2023-04-16T09:40:05.076Z,98830.09
2023-04-16T09:41:08.614Z,98832.22
2023-04-16T09:42:11.882Z,98837.06
2023-04-16T09:43:18.946Z,98838.41
2023-04-16T09:44:21.299Z,98835.19
2023-04-16T09:45:23.797Z,98830.34
2023-04-16T09:46:36.196Z,98836.25
2023-04-16T09:47:43.790Z,98835.47
2023-04-16T09:48:47.424Z,98837.06
2023-04-16T09:49:50.483Z,98836.81
2023-04-16T09:50:52.736Z,98845.94
2023-04-16T09:51:56.359Z,98842.47
2023-04-16T09:53:03.655Z,98843.00
2023-04-16T09:54:07.960Z,98844.06
2023-04-16T09:55:10.547Z,98847.56
2023-04-16T09:56:13.806Z,98850.53
2023-04-16T09:57:23.251Z,98844.59
2023-04-16T09:58:26.128Z,98847.84
2023-04-16T09:59:33.987Z,98850.25
2023-04-16T10:00:36.253Z,98849.97
2023-04-16T10:01:47.210Z,98850.78
2023-04-16T10:02:50.823Z,98845.69
2023-04-16T10:03:58.155Z,98848.91
2023-04-16T10:05:05.825Z,98855.09
2023-04-16T10:06:22.364Z,98855.63
2023-04-16T10:07:29.406Z,98849.44
2023-04-16T10:08:31.993Z,98855.38
2023-04-16T10:09:39.278Z,98848.91
2023-04-16T10:10:42.049Z,98852.66
2023-04-16T10:11:44.836Z,98858.06
2023-04-16T10:12:47.172Z,98851.88
2023-04-16T10:13:49.861Z,98853.75
2023-04-16T10:14:52.285Z,98861.81
2023-04-16T10:15:57.373Z,98858.59
2023-04-16T10:17:00.307Z,98856.97
2023-04-16T10:18:03.720Z,98863.97
2023-04-16T10:19:06.100Z,98859.66
2023-04-16T10:20:09.344Z,98855.09
2023-04-16T10:21:13.126Z,98858.06
2023-04-16T10:22:16.592Z,98859.66
2023-04-16T10:23:21.371Z,98865.56
2023-04-16T10:24:24.966Z,98863.16
2023-04-16T10:25:27.951Z,98865.03
2023-04-16T10:26:31.387Z,98864.25
2023-04-16T10:27:34.115Z,98870.41
2023-04-16T10:28:36.858Z,98867.47
2023-04-16T10:29:39.960Z,98869.91
2023-04-16T10:30:52.687Z,98872.31
2023-04-16T10:31:57.235Z,98869.91
2023-04-16T10:33:00.762Z,98867.22
2023-04-16T10:34:04.761Z,98871.53
2023-04-16T10:35:07.463Z,98867.47
2023-04-16T10:36:12.765Z,98875.03
2023-04-16T10:37:18.333Z,98862.88
2023-04-16T10:38:26.948Z,98872.84
2023-04-16T10:39:29.838Z,98866.13
2023-04-16T10:40:32.559Z,98871.53
2023-04-16T10:41:34.854Z,98861.84
2023-04-16T10:42:39.294Z,98878.50
2023-04-16T10:43:46.578Z,98867.75
2023-04-16T10:44:48.981Z,98877.72
2023-04-16T10:45:51.296Z,98871.75
2023-04-16T10:46:55.877Z,98874.22
2023-04-16T10:47:59.156Z,98867.47
2023-04-16T10:49:12.370Z,98875.03
2023-04-16T10:50:17.517Z,98863.72
2023-04-16T10:51:29.502Z,98866.94
2023-04-16T10:52:31.789Z,98864.00
2023-04-16T10:53:37.180Z,98871.53
2023-04-16T10:54:41.018Z,98864.25
2023-04-16T10:56:02.684Z,98864.78
2023-04-16T10:57:07.298Z,98875.28
2023-04-16T10:58:31.529Z,98867.50
2023-04-16T10:59:35.654Z,98867.22
2023-04-16T11:00:54.219Z,98862.91
2023-04-16T11:01:59.339Z,98864.00
2023-04-16T11:03:02.376Z,98857.53
2023-04-16T11:04:25.777Z,98860.78
2023-04-16T11:05:47.119Z,98859.41
2023-04-16T11:07:18.812Z,98862.91
2023-04-16T11:08:21.425Z,98865.31
2023-04-16T11:09:49.780Z,98864.25
2023-04-16T11:10:52.359Z,98861.84
2023-04-16T11:11:56.909Z,98862.38
2023-04-16T11:13:00.372Z,98874.22
2023-04-16T11:14:06.882Z,98861.56
2023-04-16T11:15:10.712Z,98860.75
2023-04-16T11:16:17.495Z,98869.91
2023-04-16T11:17:21.307Z,98874.22
2023-04-16T11:18:24.250Z,98874.44
2023-04-16T11:19:27.054Z,98874.44
2023-04-16T11:20:29.652Z,98869.91
2023-04-16T11:21:32.862Z,98880.66
2023-04-16T11:22:38.564Z,98875.56
2023-04-16T11:23:49.129Z,98876.88
2023-04-16T11:24:56.716Z,98879.59
2023-04-16T11:25:59.529Z,98876.34
2023-04-16T11:27:02.080Z,98878.50
2023-04-16T11:28:04.373Z,98869.91
2023-04-16T11:29:15.804Z,98880.38
2023-04-16T11:30:19.502Z,98874.75
2023-04-16T11:31:23.398Z,98867.75
2023-04-16T11:32:26.243Z,98876.63
2023-04-16T11:33:31.448Z,98876.34
2023-04-16T11:34:33.835Z,98878.25
2023-04-16T11:35:36.532Z,98874.75
2023-04-16T11:36:49.988Z,98875.28
2023-04-16T11:37:57.125Z,98873.66
2023-04-16T11:39:04.386Z,98866.66
2023-04-16T11:40:08.390Z,98878.78
2023-04-16T11:41:11.173Z,98870.72
2023-04-16T11:42:21.331Z,98873.66
2023-04-16T11:43:23.987Z,98879.84
2023-04-16T11:44:27.963Z,98884.97
2023-04-16T11:45:30.344Z,98872.59
2023-04-16T11:46:40.552Z,98880.13
2023-04-16T11:47:51.776Z,98879.59
2023-04-16T11:48:56.091Z,98873.94
2023-04-16T11:50:18.453Z,98878.25
2023-04-16T11:51:23.331Z,98879.03
2023-04-16T11:52:27.488Z,98873.66
2023-04-16T11:53:29.757Z,98883.34
2023-04-16T11:54:34.817Z,98880.38
2023-04-16T11:55:46.983Z,98881.47
2023-04-16T11:56:51.033Z,98882.81
2023-04-16T11:57:53.282Z,98881.19
2023-04-16T11:59:17.956Z,98882.00
2023-04-16T12:00:24.363Z,98886.03
2023-04-16T12:01:27.386Z,98882.00
2023-04-16T12:02:41.209Z,98882.56
2023-04-16T12:03:49.119Z,98887.66
2023-04-16T12:04:51.865Z,98886.03
2023-04-16T12:05:54.235Z,98886.56
2023-04-16T12:07:09.706Z,98884.97
2023-04-16T12:08:13.176Z,98894.91
2023-04-16T12:09:27.495Z,98880.66
2023-04-16T12:10:31.102Z,98878.75
2023-04-16T12:11:40.738Z,98882.03
2023-04-16T12:12:43.766Z,98892.50
2023-04-16T12:14:10.113Z,98891.41
2023-04-16T12:15:12.483Z,98889.28
2023-04-16T12:16:20.265Z,98882.28
2023-04-16T12:17:23.101Z,98884.41
2023-04-16T12:18:27.169Z,98879.03
2023-04-16T12:19:30.344Z,98889.81
2023-04-16T12:20:41.896Z,98882.03
2023-04-16T12:21:48.805Z,98890.38
2023-04-16T12:22:53.153Z,98884.97
2023-04-16T12:23:55.559Z,98888.72
2023-04-16T12:25:03.184Z,98891.69